Bridgeport Valley, California Weather observations

Data are for 10 minute period ending at time listed.
 Day   Time   Solar   Ave.   Ave.  Ave.  Vector  Max.   Baro.   Total    
  of    of     Rad.   Air    Rel.  Wind   Wind   Wind  Press.  Precip.   
Year   Day            Temp.  Hum.  Speed  Dir.   Gust                    
2016   (PST)  Kw/m2    F      %     mph   deg.    mph    mb.     in.     
-------------------------------------------------------------------------
 241   10:30   0.87   74.6    25    1.8    24     5.0   807.4    0.00 
 241   10:40   0.89   76.1    23    1.3   327     4.1   807.3    0.00 
 241   10:50   0.90   77.2    22    2.2    26     4.7   807.3    0.00 
 241   11:00   0.91   77.6    20    2.8    53     5.0   807.2    0.00 
 241   11:10   0.93   78.4    19    2.4    69     4.7   807.1    0.00 
 241   11:20   0.94   78.2    18    3.2    56     5.9   807.1    0.00 
 241   11:30   0.94   79.0    18    2.0   198     5.8   807.1    0.00 
 241   11:40   0.93   79.8    16    1.7   194     5.0   807.1    0.00 
 241   11:50   0.95   79.5    18    3.6    72     6.9   807.1    0.00 
 241   12:00   0.95   80.6    18    1.3   131     3.9   807.0    0.00 
 241   12:10   0.94   80.9    18    2.4    65     4.7   807.0    0.00 
 241   12:20   0.95   80.2    17    3.1   112     6.3   807.0    0.00 
 241   12:30   0.95   80.8    15    2.0   161     4.9   807.0    0.00 
 241   12:40   0.94   81.6    16    2.3    79     4.9   806.9    0.00 
 241   12:50   0.93   81.0    18    4.3   298    10.7   806.9    0.00 
 241   13:00   0.93   80.4    17    4.7   299    10.2   806.9    0.00 
 241   13:10   0.92   81.0    15    3.3   327    10.3   806.9    0.00 
 241   13:20   0.91   81.5    14    2.6   338     5.0   806.7    0.00 
 241   13:30   0.90   82.5    15    2.7   132     7.8   806.7    0.00 
 241   13:40   0.88   81.8    14    3.1   164     7.0   806.6    0.00 
 241   13:50   0.87   82.3    14    2.0   338     5.1   806.6    0.00 
 241   14:00   0.85   83.6    15    1.5   268     3.9   806.5    0.00 
 241   14:10   0.82   83.9    16    4.0   215    11.0   806.4    0.00 
 241   14:20   0.80   81.5    18    6.0   274    11.0   806.4    0.00 
 241   14:30   0.76   80.8    20   11.0   248    16.4   806.3    0.00 
 241   14:40   0.73   80.1    20   13.8   235    21.3   806.2    0.00 
 241   14:50   0.70   80.1    20   11.7   240    17.2   806.2    0.00 
 241   15:00   0.67   79.6    21   12.9   245    19.3   806.1    0.00 
 241   15:10   0.64   79.3    21   12.9   239    19.2   806.2    0.00 
 241   15:20   0.61   78.7    22   14.7   242    19.5   806.1    0.00 
 241   15:30   0.58   78.4    23   13.0   246    18.3   806.1    0.00 
 241   15:40   0.54   78.3    22   13.1   236    20.2   806.0    0.00 
 241   15:50   0.51   77.9    23   13.6   239    21.3   806.0    0.00 
 241   16:00   0.47   77.2    23   14.5   240    20.3   805.9    0.00 
 241   16:10   0.44   76.8    23   14.3   246    22.4   805.9    0.00 
 241   16:20   0.41   76.5    24   13.2   244    20.2   805.9    0.00 
 241   16:30   0.37   75.7    24   13.3   246    19.3   805.9    0.00 
 241   16:40   0.34   75.3    24   12.8   248    18.7   805.9    0.00 
 241   16:50   0.30   74.5    24   12.8   253    19.4   805.8    0.00 
 241   17:00   0.27   74.0    24   12.0   252    17.7   805.9    0.00 
 241   17:10   0.23   73.9    22   12.9   250    19.1   805.9    0.00 
 241   17:20   0.20   72.7    23   11.0   257    17.4   806.0    0.00 
 241   17:30   0.17   71.7    24   10.5   251    15.1   806.0    0.00 
 241   17:40   0.14   71.4    23   11.5   254    18.3   806.0    0.00 
 241   17:50   0.11   70.4    23    9.1   262    12.7   806.1    0.00 
 241   18:00   0.08   69.7    23    9.9   261    15.3   806.2    0.00 
 241   18:10   0.05   68.6    24    8.9   266    12.8   806.3    0.00 
 241   18:20   0.02   68.6    22   10.1   269    16.6   806.5    0.00 
 241   18:30   0.01   67.4    23    9.0   273    12.9   806.7    0.00 
 241   18:40   0.01   68.2    21    7.7   277    13.5   806.9    0.00 
 241   18:50   0.00   66.6    23    4.8   289     9.3   807.0    0.00 
 241   19:00   0.00   65.6    25    4.4    12     7.5   807.2    0.00 
 241   19:10   0.00   63.6    26    3.6   357     6.9   807.4    0.00 
 241   19:20   0.00   61.9    29    6.4    32     8.5   807.5    0.00 
 241   19:30   0.00   57.8    37    2.9    62     5.4   807.7    0.00 
 241   19:40   0.00   58.2    32    1.7    24     3.8   807.9    0.00 
 241   19:50   0.00   60.1    29    0.8   192     3.9   808.0    0.00 
 241   20:00   0.00   59.1    29    1.5   268     4.5   808.0    0.00 
 241   20:10   0.00   55.9    36    4.5   133     5.6   808.1    0.00 
 241   20:20   0.00   56.1    33    4.4   120     5.8   808.1    0.00 
 241   20:30   0.00   56.4    33    5.2    94     6.7   808.2    0.00 
 241   20:40   0.00   54.3    37    3.0    80     4.1   808.3    0.00 
 241   20:50   0.00   53.0    40    0.3    50     2.3   808.4    0.00 
 241   21:00   0.00   52.2    41    1.7   168     4.5   808.5    0.00 
 241   21:10   0.00   49.0    49    2.3   176     3.7   808.5    0.00 
 241   21:20   0.00   46.7    54    3.7   212     5.0   808.5    0.00 
 241   21:30   0.00   46.2    54    4.9   210     7.0   808.5    0.00 
 241   21:40   0.00   46.8    51    4.9   210     5.9   808.5    0.00 
 241   21:50   0.00   46.9    50    3.3   225     4.6   808.5    0.00 
 241   22:00   0.00   47.5    47    4.2   158     5.3   808.6    0.00 
 241   22:10   0.00   47.7    48    3.6   196     5.3   808.7    0.00 
 241   22:20   0.00   47.8    46    4.3   183     6.3   808.8    0.00 
 241   22:30   0.00   48.8    43    4.0   168     5.8   808.8    0.00 
 241   22:40   0.00   48.3    45    4.8   190     6.6   808.8    0.00 
 241   22:50   0.00   48.3    45    4.5   174     6.4   808.9    0.00 
 241   23:00   0.00   49.2    43    4.9   173     6.5   808.9    0.00 
 241   23:10   0.00   48.1    46    4.5   176     6.1   809.0    0.00 
 241   23:20   0.00   46.7    47    3.9   160     5.0   808.9    0.00 
 241   23:30   0.00   46.9    46    2.0   168     3.4   808.8    0.00 
 241   23:40   0.00   47.0    47    2.7   210     6.0   809.0    0.00 
 241   23:50   0.00   45.5    52    2.7   211     5.3   809.0    0.00 
 242    0:00   0.00   45.5    52    3.6   193     5.3   809.0    0.00 
 242    0:10   0.00   42.8    58    3.0   154     5.8   809.0    0.00 
 242    0:20   0.00   41.6    60    3.3   180     5.8   809.0    0.00 
 242    0:30   0.00   42.5    57    3.1   183     7.2   809.0    0.00 
 242    0:40   0.00   43.1    54    3.3   221     6.1   809.1    0.00 
 242    0:50   0.00   41.5    59    3.7   222     5.0   809.1    0.00 
 242    1:00   0.00   42.5    56    2.9   221     5.1   809.1    0.00 
 242    1:10   0.00   43.4    54    3.2   212     4.5   809.1    0.00 
 242    1:20   0.00   39.3    66    3.2   189     5.8   809.1    0.00 
 242    1:30   0.00   37.3    71    3.2   194     5.6   809.1    0.00 
 242    1:40   0.00   37.3    70    2.6   206     4.6   809.1    0.00 
 242    1:50   0.00   39.1    64    3.3   189     4.6   809.0    0.00 
 242    2:00   0.00   40.8    58    3.7   216     4.6   809.0    0.00 
 242    2:10   0.00   39.4    61    3.5   227     4.9   809.0    0.00 
 242    2:20   0.00   41.2    53    2.7   165     3.7   809.0    0.00 
 242    2:30   0.00   40.0    59    2.3   171     3.9   809.0    0.00 
 242    2:40   0.00   36.0    72    2.3   178     5.2   809.0    0.00 
 242    2:50   0.00   36.1    70    3.7   167     4.7   809.0    0.00 
 242    3:00   0.00   35.2    71    1.2   184     4.3   809.0    0.00 
 242    3:10   0.00   36.1    68    0.9   199     4.1   808.9    0.00 
 242    3:20   0.00   35.6    72    1.4   274     4.2   808.9    0.00 
 242    3:30   0.00   34.3    78    2.2   246     3.4   808.9    0.00 
 242    3:40   0.00   36.9    67    2.7   235     5.3   808.9    0.00 
 242    3:50   0.00   34.0    76    2.1   249     3.7   808.9    0.00 
 242    4:00   0.00   33.5    78    2.8   210     4.2   808.8    0.00 
 242    4:10   0.00   32.0    84    3.9   235     6.4   808.7    0.00 
 242    4:20   0.00   32.2    83    3.1   211     6.0   808.8    0.00 
 242    4:30   0.00   31.1    84    0.8   165     2.5   808.8    0.00 
 242    4:40   0.00   30.5    85    1.0   238     3.2   808.8    0.00 
 242    4:50   0.00   31.3    85    3.2   260     4.8   808.9    0.00 
 242    5:00   0.00   33.2    77    2.9   273     4.2   808.8    0.00 
 242    5:10   0.00   33.6    78    2.5   286     4.1   808.9    0.00 
 242    5:20   0.00   33.5    77    1.0   274     3.3   809.0    0.00 
 242    5:30   0.01   31.7    81    1.2   207     3.9   809.0    0.00 
 242    5:40   0.01   30.3    85    2.4   196     3.6   809.2    0.00 
 242    5:50   0.02   29.9    88    2.2   226     3.6   809.2    0.00 
 242    6:00   0.07   31.1    86    2.8   223     3.5   809.3    0.00 
 242    6:10   0.09   33.2    83    2.5   239     3.5   809.3    0.00 
 242    6:20   0.11   35.9    80    1.7   263     2.6   809.4    0.00 
 242    6:30   0.05   39.5    75    0.3   244     1.2   809.5    0.00 
 242    6:40   0.18   43.4    67    1.1   136     2.4   809.6    0.00 
 242    6:50   0.31   44.0    64    1.3   145     2.1   809.7    0.00 
 242    7:00   0.26   46.7    54    1.1   190     2.5   809.9    0.00 
 242    7:10   0.30   47.8    54    1.7   246     2.6   810.0    0.00 
 242    7:20   0.33   50.4    49    0.4   285     1.6   810.1    0.00 
 242    7:30   0.37   54.2    38    0.5    26     2.6   810.1    0.00 
 242    7:40   0.41   55.4    36    1.3    74     2.6   810.1    0.00 
 242    7:50   0.44   56.7    35    0.6    11     2.4   810.1    0.00 
 242    8:00   0.48   58.7    33    0.2     1     1.2   810.0    0.00 
 242    8:10   0.51   60.4    34    0.7   355     2.7   810.0    0.00 
 242    8:20   0.55   60.9    34    0.4     7     2.0   809.9    0.00 
 242    8:30   0.58   62.2    34    0.8    12     2.6   809.8    0.00 
 242    8:40   0.61   63.1    32    1.4    46     3.1   809.6    0.00 
 242    8:50   0.65   64.0    31    1.9    37     3.4   809.4    0.00 
 242    9:00   0.68   64.9    30    1.5    12     3.1   809.3    0.00 
 242    9:10   0.70   66.5    25    2.3   359     4.1   809.1    0.00 
 242    9:20   0.73   68.1    24    1.6    37     4.2   809.0    0.00 
 242    9:30   0.77   69.5    25    1.5    58     4.2   808.8    0.00 
 242    9:40   0.79   70.7    24    1.6    32     3.5   808.7    0.00 
 242    9:50   0.83   71.9    23    1.5   304     3.4   808.5    0.00 
 242   10:00   0.85   72.9    26    1.4   359     3.7   808.3    0.00 
 242   10:10   0.81   74.4    24    2.1   320     5.1   808.2    0.00 
 242   10:20   0.92   76.0    21    1.8   282     3.6   808.0    0.00 

Return to Bridgeport Valley graphs page.


Western Regional Climate Center,wrcc@dri.edu